Time;durP1;ratioP1;P1;durP2;ratioP2;P2;SDS_P1;SDS_P2;PMS_P1;PMS_P2;Temp;Humidity;BMP_temperature;BMP_pressure;BME280_temperature;BME280_humidity;BME280_pressure;Samples;Min_cycle;Max_cycle;Signal;HPM_P1;HPM_P2
2022/11/04 00:01:52;;;;;;;4.97;2.70;;;;;;;;;;7386945;19;20030;-71
2022/11/04 00:04:19;;;;;;;6.35;2.75;;;;;;;;;;7388283;19;19998;-71
2022/11/04 00:06:48;;;;;;;5.53;2.70;;;;;;;;;;7386627;19;20011;-72
2022/11/04 00:09:17;;;;;;;4.85;2.42;;;;;;;;;;7387101;19;20006;-71
2022/11/04 00:14:28;;;;;;;5.10;2.45;;;;;;;;;;7388071;19;20013;-69
2022/11/04 00:33:24;;;;;;;7.43;2.70;;;;;;;;;;7394912;19;20026;-70
2022/11/04 00:33:47;;;;;;;3.42;2.08;;;;;;;;;;7394644;19;20010;-70
2022/11/04 00:36:13;;;;;;;5.78;2.72;;;;;;;;;;7394636;19;20018;-71
2022/11/04 00:38:38;;;;;;;6.85;2.47;;;;;;;;;;7395102;19;20369;-72
2022/11/04 00:41:24;;;;;;;6.28;2.70;;;;;;;;;;7395038;19;20114;-71
2022/11/04 00:43:49;;;;;;;6.32;2.40;;;;;;;;;;7395791;19;20014;-70
2022/11/04 00:46:14;;;;;;;4.65;2.58;;;;;;;;;;7394153;19;19994;-69
2022/11/04 00:48:40;;;;;;;4.70;2.55;;;;;;;;;;7394390;19;20641;-70
2022/11/04 00:51:05;;;;;;;4.10;2.30;;;;;;;;;;7393279;19;20055;-72
2022/11/04 00:53:30;;;;;;;4.80;2.60;;;;;;;;;;7391497;19;20124;-71
2022/11/04 00:55:58;;;;;;;3.85;2.35;;;;;;;;;;7391350;19;20070;-72
2022/11/04 00:58:23;;;;;;;4.32;2.40;;;;;;;;;;7394140;19;19998;-70
2022/11/04 01:00:52;;;;;;;5.38;2.40;;;;;;;;;;7393381;19;20453;-72
2022/11/04 01:03:17;;;;;;;3.35;1.95;;;;;;;;;;7390432;19;20032;-70
2022/11/04 01:05:42;;;;;;;2.70;1.80;;;;;;;;;;7393332;19;20011;-71
2022/11/04 01:08:07;;;;;;;4.78;2.30;;;;;;;;;;7393471;19;20017;-71
2022/11/04 01:10:35;;;;;;;3.20;2.03;;;;;;;;;;7393289;19;20037;-71
2022/11/04 01:13:00;;;;;;;3.20;1.85;;;;;;;;;;7390422;19;20006;-71
2022/11/04 01:15:26;;;;;;;2.17;1.58;;;;;;;;;;7392861;19;20025;-70
2022/11/04 01:17:51;;;;;;;4.00;1.42;;;;;;;;;;7390802;19;20010;-69
2022/11/04 01:20:17;;;;;;;2.50;1.60;;;;;;;;;;7393289;19;19999;-71
2022/11/04 01:22:42;;;;;;;3.00;1.70;;;;;;;;;;7390718;19;20394;-71
2022/11/04 01:25:08;;;;;;;2.75;1.40;;;;;;;;;;7395119;19;20013;-72
2022/11/04 01:27:33;;;;;;;5.55;1.80;;;;;;;;;;7395755;19;20119;-72
2022/11/04 01:29:59;;;;;;;2.17;1.50;;;;;;;;;;7396285;19;19998;-72
2022/11/04 01:32:26;;;;;;;3.70;1.70;;;;;;;;;;7390775;19;20009;-72
2022/11/04 01:34:51;;;;;;;2.85;1.38;;;;;;;;;;7392453;19;20070;-71
2022/11/04 01:37:16;;;;;;;3.38;1.33;;;;;;;;;;7390858;19;20003;-71
2022/11/04 01:39:42;;;;;;;2.22;1.33;;;;;;;;;;7392462;19;20112;-71
2022/11/04 01:42:12;;;;;;;2.20;1.40;;;;;;;;;;7390941;19;20464;-71
2022/11/04 01:44:40;;;;;;;4.20;1.60;;;;;;;;;;7390484;19;20040;-72
2022/11/04 01:47:15;;;;;;;4.47;1.42;;;;;;;;;;7394869;19;20010;-72
2022/11/04 01:49:41;;;;;;;2.08;1.40;;;;;;;;;;7392468;19;20471;-72
2022/11/04 01:52:15;;;;;;;1.67;1.27;;;;;;;;;;7389060;19;19999;-71
2022/11/04 01:54:43;;;;;;;2.80;1.25;;;;;;;;;;7392406;19;20006;-72
2022/11/04 01:57:12;;;;;;;3.00;1.60;;;;;;;;;;7390556;19;20353;-70
2022/11/04 01:59:40;;;;;;;2.88;1.58;;;;;;;;;;7392467;19;20006;-72
2022/11/04 02:02:06;;;;;;;2.67;1.48;;;;;;;;;;7391057;19;20010;-72
2022/11/04 02:04:31;;;;;;;2.72;1.40;;;;;;;;;;7392815;19;20418;-71
2022/11/04 02:07:00;;;;;;;2.92;1.50;;;;;;;;;;7395211;19;20332;-72
2022/11/04 02:09:30;;;;;;;1.45;1.33;;;;;;;;;;7392858;19;20067;-71
2022/11/04 02:14:41;;;;;;;2.97;1.50;;;;;;;;;;7393385;19;20074;-71
2022/11/04 02:17:32;;;;;;;2.25;1.40;;;;;;;;;;7390688;19;20131;-71
2022/11/04 02:20:15;;;;;;;1.35;1.20;;;;;;;;;;7392262;19;19999;-71
2022/11/04 02:23:08;;;;;;;3.00;1.17;;;;;;;;;;7390640;19;20003;-72
2022/11/04 02:25:52;;;;;;;1.92;1.20;;;;;;;;;;7390150;19;20471;-70
2022/11/04 02:29:08;;;;;;;2.47;1.20;;;;;;;;;;7393639;19;20011;-72
2022/11/04 02:31:52;;;;;;;3.08;1.15;;;;;;;;;;7388094;19;20003;-72
2022/11/04 02:34:49;;;;;;;2.22;1.10;;;;;;;;;;7389423;19;20022;-71
2022/11/04 02:37:20;;;;;;;2.17;1.15;;;;;;;;;;7386861;19;20003;-71
2022/11/04 02:40:11;;;;;;;1.45;1.05;;;;;;;;;;7392638;19;20011;-71
2022/11/04 02:42:40;;;;;;;1.97;1.10;;;;;;;;;;7387697;19;20010;-72
2022/11/04 02:45:15;;;;;;;1.17;0.88;;;;;;;;;;7388605;19;20018;-72
2022/11/04 02:47:45;;;;;;;3.33;1.20;;;;;;;;;;7391323;19;20129;-71
2022/11/04 02:50:20;;;;;;;2.60;1.27;;;;;;;;;;7388510;19;20007;-72
2022/11/04 02:52:58;;;;;;;2.22;1.15;;;;;;;;;;7388785;19;20674;-71
2022/11/04 02:55:32;;;;;;;2.58;1.20;;;;;;;;;;7390646;19;20003;-72
2022/11/04 02:58:00;;;;;;;2.15;1.40;;;;;;;;;;7388320;19;20333;-72
2022/11/04 03:00:27;;;;;;;2.97;1.40;;;;;;;;;;7390125;19;20492;-72
2022/11/04 03:03:05;;;;;;;4.10;1.50;;;;;;;;;;7387746;19;20009;-74
2022/11/04 03:05:36;;;;;;;1.40;1.13;;;;;;;;;;7389709;19;20035;-72
2022/11/04 03:08:06;;;;;;;5.17;1.37;;;;;;;;;;7389608;19;20013;-72
2022/11/04 03:10:38;;;;;;;3.92;1.25;;;;;;;;;;7389915;19;20006;-71
2022/11/04 03:13:19;;;;;;;5.07;1.50;;;;;;;;;;7387768;19;20014;-72
2022/11/04 03:15:58;;;;;;;1.95;1.48;;;;;;;;;;7389210;19;19998;-71
2022/11/04 03:18:37;;;;;;;2.97;1.35;;;;;;;;;;7387812;19;20007;-72
2022/11/04 03:21:06;;;;;;;4.97;1.50;;;;;;;;;;7388755;19;20014;-72
2022/11/04 03:23:32;;;;;;;3.10;1.33;;;;;;;;;;7389229;19;20014;-72
2022/11/04 03:26:10;;;;;;;3.38;1.42;;;;;;;;;;7388828;19;20001;-72
2022/11/04 03:28:57;;;;;;;2.42;1.50;;;;;;;;;;7388853;19;20003;-72
2022/11/04 03:31:35;;;;;;;2.10;1.40;;;;;;;;;;7388280;19;20337;-72
2022/11/04 03:34:01;;;;;;;2.75;1.40;;;;;;;;;;7386758;19;19999;-71
2022/11/04 03:36:27;;;;;;;3.00;1.50;;;;;;;;;;7388825;19;20002;-71
2022/11/04 03:38:52;;;;;;;2.08;1.30;;;;;;;;;;7389198;19;20009;-72
2022/11/04 03:41:26;;;;;;;4.40;1.50;;;;;;;;;;7385829;19;20601;-72
2022/11/04 03:43:51;;;;;;;7.18;1.63;;;;;;;;;;7387068;19;20007;-74
2022/11/04 03:46:16;;;;;;;5.43;1.50;;;;;;;;;;7388815;19;20002;-72
2022/11/04 03:48:44;;;;;;;4.60;1.30;;;;;;;;;;7388486;19;20009;-73
2022/11/04 03:51:09;;;;;;;3.03;1.30;;;;;;;;;;7386655;19;20090;-71
2022/11/04 03:53:35;;;;;;;2.83;1.30;;;;;;;;;;7384875;19;20389;-72
2022/11/04 03:56:13;;;;;;;3.53;1.92;;;;;;;;;;7387406;19;20473;-71
2022/11/04 03:59:06;;;;;;;1.52;1.30;;;;;;;;;;7386617;19;20002;-72
2022/11/04 04:01:45;;;;;;;5.80;1.30;;;;;;;;;;7387325;19;20473;-72
2022/11/04 04:04:25;;;;;;;3.60;1.50;;;;;;;;;;7388540;19;20002;-71
2022/11/04 04:06:56;;;;;;;2.28;1.20;;;;;;;;;;7388294;19;20013;-72
2022/11/04 04:09:56;;;;;;;2.42;1.40;;;;;;;;;;7388441;19;20006;-71
2022/11/04 04:12:37;;;;;;;1.52;1.23;;;;;;;;;;7384947;19;20380;-72
2022/11/04 04:15:28;;;;;;;4.63;1.50;;;;;;;;;;7387874;19;20026;-72
2022/11/04 04:18:00;;;;;;;2.80;1.60;;;;;;;;;;7386682;19;20007;-72
2022/11/04 04:20:30;;;;;;;2.35;1.60;;;;;;;;;;7386404;19;19999;-72
2022/11/04 04:23:01;;;;;;;3.65;1.55;;;;;;;;;;7384829;19;20003;-71
2022/11/04 04:28:16;;;;;;;3.22;1.73;;;;;;;;;;7388444;19;20020;-72
2022/11/04 04:30:43;;;;;;;5.00;1.80;;;;;;;;;;7387785;19;20002;-73
2022/11/04 04:33:12;;;;;;;3.22;1.65;;;;;;;;;;7384110;19;20010;-71
2022/11/04 04:35:48;;;;;;;3.00;1.63;;;;;;;;;;7387547;19;20002;-70
2022/11/04 04:47:18;;;;;;;4.80;1.70;;;;;;;;;;7391207;19;20390;-72
2022/11/04 04:49:54;;;;;;;5.63;1.90;;;;;;;;;;7391452;19;20027;-73
2022/11/04 04:52:21;;;;;;;2.38;1.60;;;;;;;;;;7385611;19;20003;-72
2022/11/04 04:54:46;;;;;;;7.28;1.80;;;;;;;;;;7387041;19;20007;-72
2022/11/04 04:57:12;;;;;;;5.65;1.98;;;;;;;;;;7385355;19;19999;-71
2022/11/04 04:59:37;;;;;;;5.07;1.80;;;;;;;;;;7385155;19;20019;-73
2022/11/04 05:02:02;;;;;;;3.75;1.90;;;;;;;;;;7385138;19;20667;-71
2022/11/04 05:04:28;;;;;;;5.03;2.03;;;;;;;;;;7386527;19;20338;-71
2022/11/04 05:06:53;;;;;;;4.72;1.90;;;;;;;;;;7386083;19;20484;-72
2022/11/04 05:09:18;;;;;;;3.58;1.92;;;;;;;;;;7390633;19;20022;-73
2022/11/04 05:11:44;;;;;;;5.90;2.20;;;;;;;;;;7392203;19;20008;-73
2022/11/04 05:14:09;;;;;;;4.10;1.95;;;;;;;;;;7393584;19;19990;-73
2022/11/04 05:16:34;;;;;;;6.50;2.33;;;;;;;;;;7392104;19;20325;-73
2022/11/04 05:19:00;;;;;;;9.70;2.65;;;;;;;;;;7392875;19;19997;-72
2022/11/04 05:21:25;;;;;;;5.38;2.30;;;;;;;;;;7392449;19;19995;-73
2022/11/04 05:23:50;;;;;;;7.78;2.28;;;;;;;;;;7392926;19;20475;-72
2022/11/04 05:26:16;;;;;;;7.28;2.30;;;;;;;;;;7390522;19;20034;-73
2022/11/04 05:28:41;;;;;;;4.68;2.20;;;;;;;;;;7395012;19;20009;-72
2022/11/04 05:31:07;;;;;;;7.50;2.58;;;;;;;;;;7395558;19;20062;-74
2022/11/04 05:33:32;;;;;;;4.72;2.05;;;;;;;;;;7390877;19;20070;-73
2022/11/04 05:36:09;;;;;;;7.45;2.42;;;;;;;;;;7390818;19;20028;-73
2022/11/04 05:38:35;;;;;;;5.57;2.85;;;;;;;;;;7389852;19;20042;-72
2022/11/04 05:41:00;;;;;;;4.28;2.53;;;;;;;;;;7391764;19;20555;-74
2022/11/04 05:43:26;;;;;;;9.45;2.90;;;;;;;;;;7388646;19;20019;-72
2022/11/04 05:45:51;;;;;;;15.90;3.20;;;;;;;;;;7396522;19;20354;-72
2022/11/04 05:48:17;;;;;;;5.65;3.30;;;;;;;;;;7397080;19;20010;-73
2022/11/04 05:50:42;;;;;;;7.22;3.10;;;;;;;;;;7396061;19;20023;-73
2022/11/04 05:53:07;;;;;;;4.95;2.58;;;;;;;;;;7389976;19;19995;-73
2022/11/04 05:55:33;;;;;;;8.30;3.00;;;;;;;;;;7390561;19;20006;-73
2022/11/04 05:57:58;;;;;;;7.72;2.83;;;;;;;;;;7389839;19;20010;-73
2022/11/04 06:00:28;;;;;;;5.97;2.75;;;;;;;;;;7393365;19;19998;-73
2022/11/04 06:02:56;;;;;;;6.68;3.80;;;;;;;;;;7393400;19;20013;-74
2022/11/04 06:05:21;;;;;;;9.77;4.65;;;;;;;;;;7395891;19;20007;-72
2022/11/04 06:07:46;;;;;;;13.85;4.60;;;;;;;;;;7394762;19;20328;-72
2022/11/04 06:10:12;;;;;;;14.02;6.40;;;;;;;;;;7394303;19;20018;-73
2022/11/04 06:12:37;;;;;;;12.02;5.32;;;;;;;;;;7390336;19;20007;-72
2022/11/04 06:15:03;;;;;;;11.45;4.18;;;;;;;;;;7396305;19;20058;-74
2022/11/04 06:17:29;;;;;;;7.95;3.88;;;;;;;;;;7388043;19;19998;-72
2022/11/04 06:20:21;;;;;;;10.88;4.18;;;;;;;;;;7387608;19;20722;-73
2022/11/04 06:22:46;;;;;;;7.68;3.42;;;;;;;;;;7390636;19;20027;-73
2022/11/04 06:25:11;;;;;;;10.15;3.17;;;;;;;;;;7391592;19;20078;-73
2022/11/04 06:27:37;;;;;;;5.20;2.90;;;;;;;;;;7393773;19;20464;-73
2022/11/04 06:30:03;;;;;;;11.70;3.40;;;;;;;;;;7395039;19;20079;-72
2022/11/04 06:32:28;;;;;;;5.68;2.90;;;;;;;;;;7393514;19;20005;-73
2022/11/04 06:34:53;;;;;;;5.80;2.55;;;;;;;;;;7392884;19;20460;-73
2022/11/04 06:37:19;;;;;;;7.90;2.85;;;;;;;;;;7391737;19;20009;-71
2022/11/04 06:39:44;;;;;;;7.65;2.83;;;;;;;;;;7392998;19;20404;-73
2022/11/04 06:42:09;;;;;;;11.40;3.20;;;;;;;;;;7389596;19;20014;-74
2022/11/04 06:44:35;;;;;;;6.95;2.67;;;;;;;;;;7384649;19;20009;-70
2022/11/04 06:47:01;;;;;;;6.47;2.55;;;;;;;;;;7391016;19;20018;-70
2022/11/04 06:49:27;;;;;;;9.20;2.72;;;;;;;;;;7393531;19;19998;-70
2022/11/04 06:51:52;;;;;;;4.28;2.90;;;;;;;;;;7391872;19;19995;-71
2022/11/04 06:54:17;;;;;;;12.93;2.80;;;;;;;;;;7394267;19;20011;-70
2022/11/04 06:56:43;;;;;;;6.78;2.63;;;;;;;;;;7391056;19;20014;-70
2022/11/04 06:59:18;;;;;;;7.20;2.53;;;;;;;;;;7385187;19;20092;-69
2022/11/04 07:01:43;;;;;;;13.15;5.57;;;;;;;;;;7392212;19;20443;-69
2022/11/04 07:04:09;;;;;;;12.98;6.95;;;;;;;;;;7393088;19;20006;-70
2022/11/04 07:06:34;;;;;;;9.75;4.57;;;;;;;;;;7393032;19;20001;-70
2022/11/04 07:09:00;;;;;;;9.10;5.03;;;;;;;;;;7392402;19;20005;-71
2022/11/04 07:11:28;;;;;;;12.32;5.32;;;;;;;;;;7391534;19;20721;-70
2022/11/04 07:13:53;;;;;;;9.48;4.70;;;;;;;;;;7392046;19;20066;-71
2022/11/04 07:16:19;;;;;;;11.77;3.67;;;;;;;;;;7381210;19;20002;-72
2022/11/04 07:20:05;;;;;;;6.55;3.08;;;;;;;;;;7390572;19;20002;-70
2022/11/04 07:22:00;;;;;;;8.63;2.58;;;;;;;;;;7383737;19;20003;-69
2022/11/04 07:24:25;;;;;;;7.28;2.70;;;;;;;;;;7387084;19;20078;-70
2022/11/04 07:26:54;;;;;;;9.77;3.00;;;;;;;;;;7388578;19;20070;-70
2022/11/04 07:29:19;;;;;;;11.25;4.65;;;;;;;;;;7387990;19;19994;-67
2022/11/04 07:31:44;;;;;;;14.25;5.32;;;;;;;;;;7387043;19;20354;-70
2022/11/04 07:34:13;;;;;;;13.52;4.80;;;;;;;;;;7387756;19;20007;-70
2022/11/04 07:36:38;;;;;;;9.20;5.05;;;;;;;;;;7387914;19;20006;-70
2022/11/04 07:39:05;;;;;;;9.55;4.57;;;;;;;;;;7390170;19;20002;-70
2022/11/04 07:41:31;;;;;;;8.88;4.68;;;;;;;;;;7390237;19;20033;-69
2022/11/04 07:43:57;;;;;;;10.40;3.28;;;;;;;;;;7389725;19;20006;-70
2022/11/04 07:46:22;;;;;;;7.93;3.80;;;;;;;;;;7392351;19;20006;-70
2022/11/04 07:48:48;;;;;;;10.13;3.78;;;;;;;;;;7389416;19;20062;-69
2022/11/04 07:51:17;;;;;;;8.70;3.45;;;;;;;;;;7389042;19;20405;-68
2022/11/04 07:53:43;;;;;;;11.15;3.30;;;;;;;;;;7389657;19;20006;-68
2022/11/04 07:56:10;;;;;;;6.20;2.95;;;;;;;;;;7391365;19;19990;-71
2022/11/04 07:58:36;;;;;;;9.27;2.88;;;;;;;;;;7389767;19;20205;-69
2022/11/04 08:01:05;;;;;;;8.32;2.35;;;;;;;;;;7390044;19;20467;-69
2022/11/04 08:03:32;;;;;;;4.45;2.40;;;;;;;;;;7388526;19;20033;-68
2022/11/04 08:05:59;;;;;;;8.40;2.60;;;;;;;;;;7389114;19;20026;-68
2022/11/04 08:08:25;;;;;;;9.45;2.97;;;;;;;;;;7391206;19;20079;-69
2022/11/04 08:10:52;;;;;;;6.57;2.75;;;;;;;;;;7389338;19;20476;-69
2022/11/04 08:13:18;;;;;;;9.82;2.95;;;;;;;;;;7388775;19;20003;-68
2022/11/04 08:15:43;;;;;;;8.82;3.08;;;;;;;;;;7386355;19;20023;-70
2022/11/04 08:18:09;;;;;;;9.23;3.22;;;;;;;;;;7388773;19;19994;-70
2022/11/04 08:20:35;;;;;;;6.68;3.28;;;;;;;;;;7388040;19;20031;-70
2022/11/04 08:23:00;;;;;;;8.50;2.65;;;;;;;;;;7386906;19;19995;-72
2022/11/04 08:25:26;;;;;;;6.47;2.78;;;;;;;;;;7389807;19;20330;-74
2022/11/04 08:27:51;;;;;;;5.15;2.60;;;;;;;;;;7390583;19;20023;-72
2022/11/04 08:30:16;;;;;;;8.55;3.13;;;;;;;;;;7390079;19;19991;-73
2022/11/04 08:32:43;;;;;;;7.68;2.85;;;;;;;;;;7383665;19;20090;-72
2022/11/04 08:35:08;;;;;;;5.65;2.55;;;;;;;;;;7391412;19;20005;-73
2022/11/04 08:37:34;;;;;;;6.28;2.60;;;;;;;;;;7384429;19;19995;-73
2022/11/04 08:39:59;;;;;;;7.28;2.20;;;;;;;;;;7391209;19;19987;-73
2022/11/04 08:42:25;;;;;;;8.98;2.58;;;;;;;;;;7388867;19;20445;-72
2022/11/04 08:44:51;;;;;;;12.70;2.80;;;;;;;;;;7397244;19;20460;-71
2022/11/04 08:47:16;;;;;;;6.80;2.10;;;;;;;;;;7396819;19;19995;-71
2022/11/04 08:49:42;;;;;;;5.32;2.10;;;;;;;;;;7396250;19;20352;-72
2022/11/04 08:52:08;;;;;;;6.07;1.90;;;;;;;;;;7396395;19;20003;-71
2022/11/04 08:54:34;;;;;;;5.80;2.08;;;;;;;;;;7397323;19;19995;-69
2022/11/04 08:57:00;;;;;;;5.05;2.25;;;;;;;;;;7395082;19;20543;-68
2022/11/04 08:59:25;;;;;;;4.90;2.45;;;;;;;;;;7395645;19;19994;-70
2022/11/04 09:01:51;;;;;;;5.90;1.77;;;;;;;;;;7393540;19;20006;-69
2022/11/04 09:04:16;;;;;;;8.55;2.08;;;;;;;;;;7397170;19;20464;-69
2022/11/04 09:06:44;;;;;;;4.25;1.80;;;;;;;;;;7396525;19;20091;-70
2022/11/04 09:09:12;;;;;;;5.65;1.90;;;;;;;;;;7396145;19;20019;-70
2022/11/04 09:11:40;;;;;;;9.95;2.17;;;;;;;;;;7393979;19;20002;-71
2022/11/04 09:14:06;;;;;;;5.47;2.10;;;;;;;;;;7396177;19;19999;-70
2022/11/04 09:16:33;;;;;;;4.80;2.03;;;;;;;;;;7394673;19;20066;-74
2022/11/04 09:18:59;;;;;;;5.38;1.90;;;;;;;;;;7395387;19;20023;-74
2022/11/04 09:21:25;;;;;;;7.97;2.00;;;;;;;;;;7391604;19;20006;-74
2022/11/04 09:23:51;;;;;;;9.73;2.00;;;;;;;;;;7394539;19;20013;-74
2022/11/04 09:26:17;;;;;;;7.75;2.05;;;;;;;;;;7394135;19;20030;-73
2022/11/04 09:28:43;;;;;;;6.25;2.10;;;;;;;;;;7395436;19;20011;-72
2022/11/04 09:31:11;;;;;;;5.30;2.25;;;;;;;;;;7394829;19;20087;-73
2022/11/04 09:33:37;;;;;;;7.55;2.20;;;;;;;;;;7392881;19;19999;-71
2022/11/04 09:36:03;;;;;;;8.23;1.90;;;;;;;;;;7394119;19;20036;-73
2022/11/04 09:38:28;;;;;;;4.70;2.05;;;;;;;;;;7395110;19;20043;-70
2022/11/04 09:40:54;;;;;;;5.82;2.00;;;;;;;;;;7396442;19;20010;-71
2022/11/04 09:43:36;;;;;;;7.53;2.15;;;;;;;;;;7393372;19;20061;-72
2022/11/04 09:46:02;;;;;;;5.28;2.00;;;;;;;;;;7396425;19;20027;-72
2022/11/04 09:48:36;;;;;;;7.38;2.00;;;;;;;;;;7396441;19;19999;-71
2022/11/04 09:51:04;;;;;;;4.47;1.80;;;;;;;;;;7394636;19;20023;-71
2022/11/04 09:53:49;;;;;;;3.92;1.80;;;;;;;;;;7394653;19;20002;-71
2022/11/04 09:56:18;;;;;;;6.82;2.53;;;;;;;;;;7395793;19;20069;-71
2022/11/04 09:58:44;;;;;;;2.97;1.50;;;;;;;;;;7393252;19;20006;-69
2022/11/04 10:01:26;;;;;;;2.70;1.42;;;;;;;;;;7394743;19;20010;-71
2022/11/04 10:04:19;;;;;;;6.68;1.98;;;;;;;;;;7396792;19;20020;-71
2022/11/04 10:07:10;;;;;;;4.00;1.45;;;;;;;;;;7400568;19;19998;-72
2022/11/04 10:09:41;;;;;;;4.60;1.58;;;;;;;;;;7397004;19;19998;-71
2022/11/04 10:12:06;;;;;;;;;;;;;;;;;;7394558;19;20003;-70
2022/11/04 10:14:41;;;;;;;5.97;2.10;;;;;;;;;;7392965;19;19917;-71
2022/11/04 10:17:18;;;;;;;7.40;1.63;;;;;;;;;;7390909;19;20011;-71
2022/11/04 10:20:08;;;;;;;1.52;1.33;;;;;;;;;;7394227;19;20074;-70
2022/11/04 10:22:54;;;;;;;3.15;1.30;;;;;;;;;;7392688;19;19998;-69
2022/11/04 10:25:22;;;;;;;4.85;1.40;;;;;;;;;;7395991;19;19995;-74
2022/11/04 10:27:50;;;;;;;4.57;1.58;;;;;;;;;;7393326;19;20345;-69
2022/11/04 10:30:20;;;;;;;4.30;1.48;;;;;;;;;;7393000;19;20001;-68
2022/11/04 10:32:58;;;;;;;7.30;2.33;;;;;;;;;;7391522;19;20110;-69
2022/11/04 10:35:34;;;;;;;7.18;2.60;;;;;;;;;;7395362;19;19998;-69
2022/11/04 10:38:26;;;;;;;4.57;1.33;;;;;;;;;;7392207;19;20036;-70
2022/11/04 10:40:56;;;;;;;4.25;1.88;;;;;;;;;;7393839;19;20005;-73
2022/11/04 10:43:31;;;;;;;7.03;2.80;;;;;;;;;;7392111;19;20005;-70
2022/11/04 10:45:57;;;;;;;9.30;2.67;;;;;;;;;;7392585;19;20082;-71
2022/11/04 10:48:30;;;;;;;14.55;7.25;;;;;;;;;;7392951;19;20019;-71
2022/11/04 10:50:58;;;;;;;7.65;3.08;;;;;;;;;;7394913;19;19994;-71
2022/11/04 10:53:30;;;;;;;6.72;1.92;;;;;;;;;;7390740;19;19995;-72
2022/11/04 10:56:03;;;;;;;3.97;1.40;;;;;;;;;;7389870;19;20022;-70
2022/11/04 10:58:34;;;;;;;4.50;1.58;;;;;;;;;;7386920;19;19998;-71
2022/11/04 11:01:23;;;;;;;6.47;1.58;;;;;;;;;;7388893;19;20006;-70
2022/11/04 11:03:49;;;;;;;5.30;1.40;;;;;;;;;;7389629;19;20586;-69
2022/11/04 11:06:29;;;;;;;5.80;1.38;;;;;;;;;;7389176;19;20006;-70
2022/11/04 11:08:58;;;;;;;3.33;1.20;;;;;;;;;;7389998;19;20010;-69
2022/11/04 11:11:51;;;;;;;8.60;1.77;;;;;;;;;;7392321;19;19994;-70
2022/11/04 11:14:28;;;;;;;3.75;1.42;;;;;;;;;;7394605;19;20104;-69
2022/11/04 11:17:21;;;;;;;6.43;1.50;;;;;;;;;;7393772;19;20389;-79
2022/11/04 11:19:52;;;;;;;6.28;1.60;;;;;;;;;;7392086;19;20002;-77
2022/11/04 11:22:34;;;;;;;5.18;1.60;;;;;;;;;;7390383;19;20105;-78
2022/11/04 11:25:23;;;;;;;5.32;1.52;;;;;;;;;;7392667;19;20019;-77
2022/11/04 11:27:59;;;;;;;8.45;1.83;;;;;;;;;;7391976;19;20683;-78
2022/11/04 11:30:54;;;;;;;4.55;1.42;;;;;;;;;;7393432;19;20002;-75
2022/11/04 11:33:27;;;;;;;7.32;2.03;;;;;;;;;;7389936;19;20009;-74
2022/11/04 11:35:52;;;;;;;4.70;1.25;;;;;;;;;;7387972;19;20030;-73
2022/11/04 11:38:20;;;;;;;4.53;1.60;;;;;;;;;;7390353;19;20002;-75
2022/11/04 11:40:47;;;;;;;5.88;1.40;;;;;;;;;;7391520;19;20031;-75
2022/11/04 11:43:22;;;;;;;4.53;1.50;;;;;;;;;;7387611;19;20125;-70
2022/11/04 11:45:49;;;;;;;5.93;1.50;;;;;;;;;;7385735;19;20054;-72
2022/11/04 11:48:37;;;;;;;5.40;1.50;;;;;;;;;;7391690;19;20078;-71
2022/11/04 11:51:03;;;;;;;4.13;1.27;;;;;;;;;;7391342;19;19998;-71
2022/11/04 11:53:38;;;;;;;7.40;1.58;;;;;;;;;;7388714;19;20033;-73
2022/11/04 11:56:23;;;;;;;5.82;1.42;;;;;;;;;;7368037;19;19998;-73
2022/11/04 11:58:55;;;;;;;4.20;1.25;;;;;;;;;;7389762;19;20006;-73
2022/11/04 12:01:30;;;;;;;3.55;1.25;;;;;;;;;;7391247;19;20002;-72
2022/11/04 12:03:59;;;;;;;4.30;1.45;;;;;;;;;;7391926;19;20467;-72
2022/11/04 12:06:47;;;;;;;3.75;1.63;;;;;;;;;;7392241;19;20602;-73
2022/11/04 12:09:33;;;;;;;3.80;1.40;;;;;;;;;;7393007;19;20633;-74
2022/11/04 12:12:21;;;;;;;7.03;1.45;;;;;;;;;;7388344;19;20332;-73
2022/11/04 12:15:13;;;;;;;3.38;1.50;;;;;;;;;;7390786;19;20025;-73
2022/11/04 12:17:51;;;;;;;6.13;1.60;;;;;;;;;;7388340;19;20061;-72
2022/11/04 12:20:38;;;;;;;4.95;1.63;;;;;;;;;;7390494;19;20013;-73
2022/11/04 12:23:18;;;;;;;5.45;1.80;;;;;;;;;;7389865;19;20007;-73
2022/11/04 12:26:09;;;;;;;4.77;1.63;;;;;;;;;;7389418;19;20006;-72
2022/11/04 12:28:58;;;;;;;5.30;2.22;;;;;;;;;;7389675;19;20003;-73
2022/11/04 12:31:44;;;;;;;4.90;1.60;;;;;;;;;;7390060;19;19999;-76
2022/11/04 12:34:31;;;;;;;6.10;1.45;;;;;;;;;;7383329;19;20034;-73
2022/11/04 12:37:11;;;;;;;4.45;1.48;;;;;;;;;;7389789;19;20938;-72
2022/11/04 12:40:16;;;;;;;5.40;1.52;;;;;;;;;;7390775;19;19994;-74
2022/11/04 12:43:17;;;;;;;5.97;1.58;;;;;;;;;;7389635;19;19998;-73
2022/11/04 12:45:58;;;;;;;4.55;1.42;;;;;;;;;;7390415;19;19995;-74
2022/11/04 12:48:57;;;;;;;3.33;1.00;;;;;;;;;;7390001;19;20096;-74
2022/11/04 12:51:47;;;;;;;6.03;1.42;;;;;;;;;;7388144;19;20018;-76
2022/11/04 12:54:31;;;;;;;4.43;1.50;;;;;;;;;;7390268;19;20018;-74
2022/11/04 12:57:26;;;;;;;2.90;1.17;;;;;;;;;;7388905;19;20532;-71
2022/11/04 13:00:02;;;;;;;5.00;1.40;;;;;;;;;;7390421;19;19999;-72
2022/11/04 13:02:33;;;;;;;3.00;1.30;;;;;;;;;;7388732;19;20007;-69
2022/11/04 13:05:21;;;;;;;6.05;1.55;;;;;;;;;;7390529;19;20003;-71
2022/11/04 13:07:54;;;;;;;3.05;1.30;;;;;;;;;;7388750;19;20487;-70
2022/11/04 13:10:30;;;;;;;2.67;1.40;;;;;;;;;;7389326;19;20002;-71
2022/11/04 13:12:59;;;;;;;4.22;1.20;;;;;;;;;;7387525;19;20002;-72
2022/11/04 13:15:27;;;;;;;4.88;1.33;;;;;;;;;;7388523;19;20019;-72
2022/11/04 13:17:59;;;;;;;2.45;1.20;;;;;;;;;;7387389;19;20028;-70
2022/11/04 13:20:57;;;;;;;5.38;1.58;;;;;;;;;;7389277;19;19999;-73
2022/11/04 13:23:27;;;;;;;3.13;1.35;;;;;;;;;;7384656;19;20003;-72
2022/11/04 13:25:54;;;;;;;5.03;1.50;;;;;;;;;;7389216;19;20020;-72
2022/11/04 13:28:21;;;;;;;2.97;1.45;;;;;;;;;;7387205;19;20336;-70
2022/11/04 13:31:05;;;;;;;9.15;1.45;;;;;;;;;;7392235;19;20507;-70
2022/11/04 13:33:52;;;;;;;6.72;2.20;;;;;;;;;;7393072;19;20062;-72
2022/11/04 13:36:27;;;;;;;6.22;1.35;;;;;;;;;;7394880;19;20005;-71
2022/11/04 13:38:58;;;;;;;4.68;1.40;;;;;;;;;;7394721;19;20019;-73
2022/11/04 13:41:37;;;;;;;5.18;1.60;;;;;;;;;;7393847;19;20416;-74
2022/11/04 13:44:12;;;;;;;3.92;1.45;;;;;;;;;;7394919;19;20007;-74
2022/11/04 13:46:37;;;;;;;4.47;1.48;;;;;;;;;;7395111;19;19998;-73
2022/11/04 13:49:19;;;;;;;3.90;1.33;;;;;;;;;;7393921;19;20492;-71
2022/11/04 13:51:59;;;;;;;7.18;1.55;;;;;;;;;;7393634;19;19999;-72
2022/11/04 13:54:53;;;;;;;5.15;1.63;;;;;;;;;;7397306;19;20006;-72
2022/11/04 13:57:27;;;;;;;8.02;1.30;;;;;;;;;;7390213;19;20074;-74
2022/11/04 14:00:18;;;;;;;4.47;1.35;;;;;;;;;;7393314;19;20010;-71
2022/11/04 14:02:45;;;;;;;4.25;1.30;;;;;;;;;;7393605;19;20346;-71
2022/11/04 14:05:40;;;;;;;6.28;1.42;;;;;;;;;;7393294;19;20503;-71
2022/11/04 14:08:12;;;;;;;3.17;1.80;;;;;;;;;;7394666;19;20342;-69
2022/11/04 14:10:52;;;;;;;3.13;1.45;;;;;;;;;;7395662;19;20022;-71
2022/11/04 14:13:26;;;;;;;3.50;1.48;;;;;;;;;;7391933;19;19998;-71
2022/11/04 14:15:58;;;;;;;4.13;1.40;;;;;;;;;;7393853;19;20078;-71
2022/11/04 14:18:28;;;;;;;4.00;1.25;;;;;;;;;;7393206;19;20467;-72
2022/11/04 14:21:05;;;;;;;4.80;1.30;;;;;;;;;;7396870;19;20002;-70
2022/11/04 14:23:30;;;;;;;3.88;1.40;;;;;;;;;;7396754;19;20002;-75
2022/11/04 14:26:02;;;;;;;6.00;1.35;;;;;;;;;;7395219;19;20474;-73
2022/11/04 14:28:29;;;;;;;2.53;0.95;;;;;;;;;;7395957;19;20409;-72
2022/11/04 14:31:07;;;;;;;4.53;1.52;;;;;;;;;;7392324;19;20004;-72
2022/11/04 14:33:55;;;;;;;2.88;1.10;;;;;;;;;;7392901;19;20062;-71
2022/11/04 14:36:21;;;;;;;1.92;1.08;;;;;;;;;;7394567;19;20094;-71
2022/11/04 14:38:57;;;;;;;4.45;1.33;;;;;;;;;;7394134;19;20365;-71
2022/11/04 14:41:51;;;;;;;6.70;1.42;;;;;;;;;;7382320;19;20477;-72
2022/11/04 14:44:31;;;;;;;4.97;1.08;;;;;;;;;;7393201;19;20001;-71
2022/11/04 14:47:25;;;;;;;3.28;1.20;;;;;;;;;;7394236;19;20555;-71
2022/11/04 14:50:08;;;;;;;3.13;1.10;;;;;;;;;;7394493;19;19994;-71
2022/11/04 14:52:57;;;;;;;1.55;1.15;;;;;;;;;;7391182;19;20024;-69
2022/11/04 14:55:28;;;;;;;2.30;1.05;;;;;;;;;;7393381;19;20014;-70
2022/11/04 14:57:56;;;;;;;5.35;1.30;;;;;;;;;;7391287;19;19998;-70
2022/11/04 15:00:36;;;;;;;3.92;1.30;;;;;;;;;;7394477;19;20027;-70
2022/11/04 15:03:13;;;;;;;3.83;1.20;;;;;;;;;;7391048;19;19999;-70
2022/11/04 15:05:44;;;;;;;2.95;1.20;;;;;;;;;;7392031;19;20731;-70
2022/11/04 15:08:40;;;;;;;4.43;1.20;;;;;;;;;;7393528;19;20002;-70
2022/11/04 15:12:49;;;;;;;3.50;1.40;;;;;;;;;;7391579;19;19995;-70
2022/11/04 15:14:22;;;;;;;3.78;1.17;;;;;;;;;;7390283;19;20050;-74
2022/11/04 15:16:53;;;;;;;;;;;;;;;;;;7391980;19;19998;-69
2022/11/04 15:19:36;;;;;;;2.10;1.00;;;;;;;;;;7390177;19;19942;-69
2022/11/04 15:22:05;;;;;;;5.15;1.25;;;;;;;;;;7390238;19;20014;-69
2022/11/04 15:24:31;;;;;;;4.10;1.10;;;;;;;;;;7391029;19;19998;-71
2022/11/04 15:27:02;;;;;;;2.67;1.08;;;;;;;;;;7390239;19;20044;-70
2022/11/04 15:29:27;;;;;;;5.00;1.40;;;;;;;;;;7389843;19;20730;-71
2022/11/04 15:32:01;;;;;;;1.60;1.10;;;;;;;;;;7386047;19;20082;-69
2022/11/04 15:34:28;;;;;;;1.98;0.98;;;;;;;;;;7387236;19;20509;-70
2022/11/04 15:36:55;;;;;;;3.50;1.40;;;;;;;;;;7388983;19;20106;-69
2022/11/04 15:39:24;;;;;;;3.75;1.60;;;;;;;;;;7388209;19;20481;-70
2022/11/04 15:44:45;;;;;;;6.00;1.85;;;;;;;;;;7393184;19;20005;-70
2022/11/04 15:47:16;;;;;;;2.45;1.30;;;;;;;;;;7388325;19;20011;-70
2022/11/04 15:49:42;;;;;;;3.88;1.30;;;;;;;;;;7388932;19;19998;-70